Stites, ID (83552)

7:56 AM PST on December 25, 2014 (GMT -0800)
Ash Street Kamiah | Change Station
CLOSE
Current Station
Personal Weather Station
Location: Kamiah, ID
Elevation: 1224 ft
Nearby Weather Stations

Elev 1224 ft 46.22 °N, 116.03 °W | Updated 8 seconds ago

Mostly Cloudy
Mostly Cloudy
38.8 °F
Feels Like 39 °F
N
0.0
Wind Variable Wind from NW
Gusts 0.0 mph

Today
High -- | Low -- °F
--% Chance of Precip.
Yesterday
High -- | Low -- °F
Precip. -- in
7:24 AM 4:03 PM
Waxing Crescent, 17% visible
Pressure 30.04 in
Visibility 10.0 miles
Clouds Clear
Windchill 39 °F
Dew Point 33 °F
Humidity 79%
Rainfall 0.00 in
Snow Depth Not available.
UV 0 out of 12
Pollen .10 out of 12
Air Quality Not available.
Flu Activity Not available.
METAR KLWS 251456Z 28004KT 10SM CLR 01/M03 A3000 RMK AO2 SLP172 T00111033 53024

More Conditions Fewer Conditions

Pressure 30.04 in
Visibility 10.0 miles
Clouds Clear
Windchill 39 °F
Dew Point 33 °F
Humidity 79%
Rainfall 0.00 in
Snow Depth Not available.
UV 0 out of 12
Pollen .10 out of 12
Air Quality Not available.
Flu Activity Not available.
METAR KLWS 251456Z 28004KT 10SM CLR 01/M03 A3000 RMK AO2 SLP172 T00111033 53024

More Conditions Fewer Conditions

10-Day Weather Forecast

Almanac

Astronomy

Dec. 25, 2014 Rise Set
Actual Time
Civil Twilight
Nautical Twilight
Astronomical Twilight
Moon
Length of Visible Light
Length of Day
Tomorrow will be .
, % of the Moon is Illuminated

Today's Extremes

State Highs State Lows

Community

WunderPhotos

Upload Photos

1,780,315 photos uploaded!

WunderBlogs® & News

Nearby

Air Quality

  Air Quality AQ Index Pollutant
Not available.

Snow Depth

Station Depth Elevation

Earthquake Activity

City Distance Mag. Time & Date
Minimum magnitude displayed is 2.5.

Coastal Water Temperatures

Place Temperature

Nearby Weather Stations